Time;durP1;ratioP1;P1;durP2;ratioP2;P2;SDS_P1;SDS_P2;PMS_P1;PMS_P2;Temp;Humidity;BMP_temperature;BMP_pressure;BME280_temperature;BME280_humidity;BME280_pressure;Samples;Min_cycle;Max_cycle;Signal;HPM_P1;HPM_P2
2022/05/08 00:00:00;;;;;;;14.40;5.55;;;;;;;12.04;65.11;101471.97;4936588;29;20027;-78
2022/05/08 00:02:27;;;;;;;30.85;6.60;;;;;;;12.06;64.52;101470.00;4936733;29;20057;-77
2022/05/08 00:04:53;;;;;;;16.65;5.30;;;;;;;12.05;64.73;101477.22;4936908;29;20032;-78
2022/05/08 00:07:20;;;;;;;20.73;6.05;;;;;;;11.97;65.13;101477.81;4936769;29;20387;-78
2022/05/08 00:09:46;;;;;;;17.75;5.82;;;;;;;12.00;64.93;101474.03;4936895;29;20035;-77
2022/05/08 00:12:13;;;;;;;22.83;5.50;;;;;;;12.04;65.40;101478.22;4936671;29;20428;-77
2022/05/08 00:14:39;;;;;;;23.52;5.68;;;;;;;11.96;65.24;101465.31;4936768;29;20110;-77
2022/05/08 00:17:05;;;;;;;21.75;5.88;;;;;;;12.06;64.79;101472.72;4936436;29;20034;-78
2022/05/08 00:19:31;;;;;;;23.10;7.20;;;;;;;11.97;64.55;101458.94;4936382;29;20024;-77
2022/05/08 00:21:57;;;;;;;23.27;7.10;;;;;;;11.94;64.99;101467.25;4936420;29;20482;-77
2022/05/08 00:24:22;;;;;;;24.02;7.93;;;;;;;11.93;65.30;101480.84;4936416;29;20031;-77
2022/05/08 00:26:48;;;;;;;24.80;9.43;;;;;;;11.88;65.77;101475.78;4936177;29;20083;-78
2022/05/08 00:29:15;;;;;;;42.30;12.15;;;;;;;11.90;65.64;101475.66;4936356;29;20106;-78
2022/05/08 00:31:41;;;;;;;31.83;12.45;;;;;;;11.90;65.84;101476.53;4936270;29;20044;-78
2022/05/08 00:34:07;;;;;;;25.60;12.55;;;;;;;11.86;66.20;101463.41;4935963;29;20505;-78
2022/05/08 00:36:33;;;;;;;24.83;9.73;;;;;;;11.89;65.92;101468.56;4936457;29;20028;-78
2022/05/08 00:38:58;;;;;;;21.88;8.93;;;;;;;11.89;66.33;101458.66;4936427;29;20098;-78
2022/05/08 00:41:24;;;;;;;29.30;9.55;;;;;;;11.85;66.36;101462.53;4936215;29;20051;-77
2022/05/08 00:43:49;;;;;;;30.63;7.82;;;;;;;11.83;66.43;101453.69;4936272;29;20220;-78
2022/05/08 00:46:16;;;;;;;23.02;7.55;;;;;;;11.90;66.83;101457.66;4935935;29;20102;-78
2022/05/08 00:48:42;;;;;;;19.02;6.65;;;;;;;11.96;66.94;101459.91;4936062;29;20059;-78
2022/05/08 00:51:09;;;;;;;24.10;5.43;;;;;;;11.95;66.63;101455.50;4936014;29;20108;-78
2022/05/08 00:53:43;;;;;;;19.42;5.55;;;;;;;11.97;66.50;101452.69;4936286;29;20020;-78
2022/05/08 00:56:14;;;;;;;12.57;5.03;;;;;;;11.96;66.64;101457.22;4935567;29;20056;-78
2022/05/08 00:58:42;;;;;;;12.65;4.57;;;;;;;11.96;66.65;101459.91;4936233;29;20038;-78
2022/05/08 01:01:11;;;;;;;12.80;5.05;;;;;;;11.95;66.67;101455.50;4945341;28;20043;-79
2022/05/08 01:03:38;;;;;;;18.55;4.20;;;;;;;11.95;67.17;101455.50;4952689;28;20024;-78
2022/05/08 01:06:08;;;;;;;19.58;7.43;;;;;;;11.93;67.14;101452.03;4937011;29;20095;-78
2022/05/08 01:08:36;;;;;;;29.73;6.30;;;;;;;11.93;66.88;101454.75;4935791;29;20042;-78
2022/05/08 01:11:04;;;;;;;15.90;6.03;;;;;;;11.96;66.70;101449.13;4934314;29;20083;-78
2022/05/08 01:13:30;;;;;;;21.15;5.75;;;;;;;11.87;67.10;101457.88;4935785;29;20033;-78
2022/05/08 01:15:56;;;;;;;16.08;6.00;;;;;;;11.89;67.63;101455.97;4936195;29;20107;-78
2022/05/08 01:18:22;;;;;;;9.13;4.20;;;;;;;11.86;67.08;101448.06;4935488;29;20087;-77
2022/05/08 01:20:47;;;;;;;16.45;4.65;;;;;;;11.89;67.24;101457.78;4935777;29;20098;-77
2022/05/08 01:23:21;;;;;;;16.73;4.70;;;;;;;11.93;66.98;101465.53;4935865;29;20027;-78
2022/05/08 01:25:56;;;;;;;16.35;4.53;;;;;;;11.88;66.92;101467.72;4935854;29;20027;-78
2022/05/08 01:28:23;;;;;;;12.30;4.75;;;;;;;11.84;66.88;101462.63;4950438;29;20065;-79
2022/05/08 01:30:53;;;;;;;11.68;4.45;;;;;;;11.82;66.53;101465.47;4935414;29;20438;-78
2022/05/08 01:33:19;;;;;;;11.88;4.75;;;;;;;11.78;66.67;101455.88;4935590;29;20024;-79
2022/05/08 01:35:45;;;;;;;20.02;5.15;;;;;;;11.86;66.09;101464.25;4935499;29;20046;-77
2022/05/08 01:38:14;;;;;;;16.30;5.07;;;;;;;11.83;66.71;101464.47;4935518;29;20498;-78
2022/05/08 01:40:40;;;;;;;18.23;4.80;;;;;;;11.80;66.63;101458.47;4936582;29;20063;-77
2022/05/08 01:43:06;;;;;;;14.93;5.32;;;;;;;11.76;66.81;101454.28;4937431;29;20046;-79
2022/05/08 01:45:32;;;;;;;21.90;6.15;;;;;;;11.80;66.93;101464.69;4935875;29;20027;-77
2022/05/08 01:50:42;;;;;;;14.73;5.55;;;;;;;11.70;67.11;101444.81;4935535;29;20450;-78
2022/05/08 01:53:08;;;;;;;12.18;5.07;;;;;;;11.72;67.13;101448.22;4935524;29;20028;-77
2022/05/08 01:55:33;;;;;;;14.18;5.32;;;;;;;11.74;67.49;101459.75;4935776;29;20035;-77
2022/05/08 01:57:59;;;;;;;13.40;4.70;;;;;;;11.70;67.80;101447.50;4935655;29;20063;-78
2022/05/08 02:00:26;;;;;;;18.23;5.00;;;;;;;11.69;67.74;101451.13;4935677;29;20059;-77
2022/05/08 02:02:52;;;;;;;17.83;5.50;;;;;;;11.63;68.21;101456.97;4935647;29;20375;-77
2022/05/08 02:05:22;;;;;;;19.08;5.20;;;;;;;11.56;68.70;101452.97;4934638;29;20024;-77
2022/05/08 02:07:48;;;;;;;17.52;4.78;;;;;;;11.57;68.77;101457.41;4938127;29;20055;-78
2022/05/08 02:10:16;;;;;;;14.50;5.22;;;;;;;11.59;69.36;101460.00;4939368;29;20067;-78
2022/05/08 02:12:42;;;;;;;9.45;4.45;;;;;;;11.57;69.44;101454.72;4938967;29;20094;-79
2022/05/08 02:15:09;;;;;;;16.23;4.22;;;;;;;11.60;69.72;101457.19;4939752;29;20035;-78
2022/05/08 02:17:35;;;;;;;19.42;4.47;;;;;;;11.62;69.77;101457.09;4953794;29;20039;-78
2022/05/08 02:20:01;;;;;;;9.77;4.13;;;;;;;11.63;69.59;101446.19;4939756;29;20082;-78
2022/05/08 02:22:27;;;;;;;10.77;4.50;;;;;;;11.65;69.60;101449.63;4938965;29;20385;-76
2022/05/08 02:24:52;;;;;;;24.45;4.50;;;;;;;11.65;69.47;101454.16;4938868;29;20020;-77
2022/05/08 02:27:18;;;;;;;17.23;4.97;;;;;;;11.51;69.85;101455.16;4939340;29;20075;-79
2022/05/08 02:29:51;;;;;;;16.08;4.68;;;;;;;11.53;70.25;101444.28;4939248;29;20023;-78
2022/05/08 02:32:18;;;;;;;17.83;5.30;;;;;;;11.51;70.34;101452.47;4938882;29;20031;-79
2022/05/08 02:34:44;;;;;;;9.50;4.45;;;;;;;11.52;70.29;101454.19;4939286;29;20027;-77
2022/05/08 02:37:09;;;;;;;9.95;4.18;;;;;;;11.46;70.90;101449.25;4944685;29;20031;-78
2022/05/08 02:39:35;;;;;;;9.23;4.15;;;;;;;11.54;70.63;101444.16;4957133;29;20083;-77
2022/05/08 02:42:00;;;;;;;13.25;5.32;;;;;;;11.50;70.38;101445.34;4939475;29;20026;-79
2022/05/08 02:44:26;;;;;;;17.52;4.95;;;;;;;11.46;70.24;101438.47;4938488;29;20046;-79
2022/05/08 02:46:51;;;;;;;13.68;5.15;;;;;;;11.49;70.32;101449.03;4938570;29;20027;-80
2022/05/08 02:49:17;;;;;;;18.25;5.50;;;;;;;11.44;70.48;101457.41;4938860;29;20027;-77
2022/05/08 02:51:42;;;;;;;13.73;4.70;;;;;;;11.49;70.73;101443.63;4938265;29;20027;-80
2022/05/08 02:54:08;;;;;;;21.92;5.97;;;;;;;11.46;70.47;101450.13;4939322;29;20015;-79
2022/05/08 02:59:37;;;;;;;19.30;5.40;;;;;;;11.40;70.07;101460.47;4955453;29;20090;-78
2022/05/08 03:02:03;;;;;;;11.73;4.82;;;;;;;11.43;70.86;101466.50;4955202;29;20019;-78
2022/05/08 03:04:28;;;;;;;32.17;5.75;;;;;;;11.43;71.21;101465.63;4947417;29;20067;-77
2022/05/08 03:06:54;;;;;;;18.10;5.53;;;;;;;11.44;71.22;101461.94;4938531;29;20027;-77
2022/05/08 03:09:20;;;;;;;28.48;4.90;;;;;;;11.50;70.97;101474.13;4938769;29;20070;-80
2022/05/08 03:11:45;;;;;;;17.48;5.20;;;;;;;11.51;70.81;101467.75;4937973;29;20024;-79
2022/05/08 03:14:10;;;;;;;20.75;5.60;;;;;;;11.56;70.56;101473.69;4938591;29;20023;-78
2022/05/08 03:16:36;;;;;;;11.77;4.50;;;;;;;11.58;70.86;101466.34;4938246;29;20020;-78
2022/05/08 03:19:01;;;;;;;19.25;4.85;;;;;;;11.64;70.29;101469.47;4938281;29;20027;-78
2022/05/08 03:21:27;;;;;;;18.55;4.20;;;;;;;11.62;70.76;101466.00;4941731;29;20034;-77
2022/05/08 03:23:53;;;;;;;12.00;4.95;;;;;;;11.67;70.36;101468.38;4945084;29;20454;-78
2022/05/08 03:26:19;;;;;;;34.83;4.78;;;;;;;11.70;70.53;101462.81;4959100;28;20030;-77
2022/05/08 03:28:47;;;;;;;22.58;5.47;;;;;;;11.79;70.57;101467.50;4945710;29;20023;-77
2022/05/08 03:31:13;;;;;;;36.65;7.25;;;;;;;11.78;70.11;101460.41;4941212;29;20028;-79
2022/05/08 03:33:39;;;;;;;10.60;4.82;;;;;;;11.75;69.77;101466.88;4957434;29;20481;-76
2022/05/08 03:36:10;;;;;;;25.80;7.63;;;;;;;11.87;69.93;101465.97;4950800;28;20023;-78
2022/05/08 03:38:43;;;;;;;12.90;6.40;;;;;;;11.94;69.52;101467.25;4939295;29;20074;-80
2022/05/08 03:41:08;;;;;;;15.23;5.65;;;;;;;11.88;69.64;101446.16;4938305;29;20031;-77
2022/05/08 03:43:34;;;;;;;16.50;6.22;;;;;;;11.97;70.00;101471.56;4938181;29;20044;-77
2022/05/08 03:46:00;;;;;;;10.77;5.80;;;;;;;11.94;70.06;101455.59;4945385;29;20031;-77
2022/05/08 03:48:26;;;;;;;17.77;6.22;;;;;;;12.02;70.09;101465.84;4956882;28;20397;-77
2022/05/08 03:50:51;;;;;;;15.93;6.00;;;;;;;12.04;70.31;101472.84;4956873;28;20046;-78
2022/05/08 03:53:17;;;;;;;16.05;8.13;;;;;;;12.12;69.56;101469.56;4956963;29;20038;-78
2022/05/08 03:55:43;;;;;;;23.92;6.63;;;;;;;12.18;69.93;101469.09;4956624;28;20514;-78
2022/05/08 03:58:08;;;;;;;17.13;7.68;;;;;;;12.28;69.65;101483.63;4956525;28;20092;-78
2022/05/08 04:00:34;;;;;;;26.10;11.20;;;;;;;12.17;69.21;101478.19;4956385;28;20034;-78
2022/05/08 04:03:00;;;;;;;24.75;11.05;;;;;;;12.26;69.68;101472.09;4956509;28;20027;-77
2022/05/08 04:05:26;;;;;;;23.42;10.93;;;;;;;12.26;69.06;101478.31;4957168;28;20031;-77
2022/05/08 04:07:52;;;;;;;21.77;10.32;;;;;;;12.36;69.00;101483.91;4956791;28;20031;-78
2022/05/08 04:10:17;;;;;;;31.73;12.50;;;;;;;12.49;67.96;101476.63;4957148;28;20449;-78
2022/05/08 04:12:44;;;;;;;29.70;12.55;;;;;;;12.44;67.66;101468.00;4956252;28;20031;-78
2022/05/08 04:16:15;;;;;;;37.83;12.68;;;;;;;12.48;68.09;101480.28;4973600;28;20027;-78
2022/05/08 04:17:55;;;;;;;22.60;13.18;;;;;;;12.49;67.32;101471.22;4962276;28;20091;-78
2022/05/08 04:20:21;;;;;;;24.60;11.77;;;;;;;12.58;67.10;101467.81;4956275;28;20066;-78
2022/05/08 04:25:30;;;;;;;32.90;13.35;;;;;;;12.65;66.97;101485.28;4955977;29;20038;-78
2022/05/08 04:27:56;;;;;;;31.73;12.85;;;;;;;12.59;67.14;101484.88;4956430;28;20031;-78
2022/05/08 04:30:21;;;;;;;28.75;11.45;;;;;;;12.58;67.45;101489.41;4955540;28;20035;-78
2022/05/08 04:32:47;;;;;;;28.27;12.13;;;;;;;12.65;67.23;101485.28;4956741;29;20163;-78
2022/05/08 04:35:12;;;;;;;35.65;12.35;;;;;;;12.72;67.03;101494.59;4956372;28;20062;-78
2022/05/08 04:37:38;;;;;;;23.42;12.00;;;;;;;12.70;66.71;101490.28;4958640;28;20447;-80
2022/05/08 04:40:09;;;;;;;28.45;12.88;;;;;;;12.71;66.16;101473.13;4957090;28;20031;-90
2022/05/08 04:42:34;;;;;;;30.73;12.02;;;;;;;12.83;66.04;101488.38;4962494;28;20066;-79
2022/05/08 04:45:00;;;;;;;30.05;11.73;;;;;;;12.87;65.79;101495.28;4967660;28;20023;-82
2022/05/08 04:47:27;;;;;;;32.30;11.40;;;;;;;12.94;65.82;101497.38;4968579;28;20070;-77
2022/05/08 04:49:53;;;;;;;19.75;10.63;;;;;;;13.00;65.61;101485.22;4963269;28;20038;-79
2022/05/08 04:52:18;;;;;;;32.53;12.73;;;;;;;13.13;65.72;101493.28;4956468;28;20019;-79
2022/05/08 04:54:43;;;;;;;33.55;11.40;;;;;;;13.21;65.46;101488.16;4956899;28;20379;-81
2022/05/08 04:57:09;;;;;;;29.83;9.90;;;;;;;13.22;65.42;101489.84;4957394;28;20062;-82
2022/05/08 04:59:35;;;;;;;28.35;9.95;;;;;;;13.34;65.39;101494.28;4971847;28;20038;-81
2022/05/08 05:02:02;;;;;;;18.23;10.07;;;;;;;13.43;65.40;101498.97;4955949;28;20049;-82
2022/05/08 05:04:28;;;;;;;22.38;10.32;;;;;;;13.54;65.41;101485.47;4946817;28;20421;-82
2022/05/08 05:06:54;;;;;;;27.20;10.00;;;;;;;13.62;65.02;101494.69;4936911;29;20031;-81
2022/05/08 05:09:19;;;;;;;27.63;9.45;;;;;;;13.65;66.06;101493.56;4940887;29;20023;-81
2022/05/08 05:11:44;;;;;;;22.73;11.20;;;;;;;13.61;66.26;101497.50;4944596;29;20034;-81
2022/05/08 05:14:10;;;;;;;17.08;7.97;;;;;;;13.75;65.57;101499.09;4949174;29;20054;-81
2022/05/08 05:16:35;;;;;;;24.55;9.68;;;;;;;13.81;65.75;101493.19;4941307;29;20094;-81
2022/05/08 05:19:01;;;;;;;26.65;8.48;;;;;;;13.88;66.30;101500.66;4952126;29;20079;-78
2022/05/08 05:21:26;;;;;;;25.08;6.10;;;;;;;13.86;67.29;101497.22;4964371;28;20023;-80
2022/05/08 05:23:52;;;;;;;26.33;4.97;;;;;;;14.06;67.39;101501.91;4968326;28;20180;-78
2022/05/08 05:26:18;;;;;;;12.05;5.30;;;;;;;14.16;67.40;101500.13;4954491;28;20396;-77
2022/05/08 05:28:44;;;;;;;16.63;5.00;;;;;;;14.33;67.11;101506.91;4954539;28;20019;-77
2022/05/08 05:31:12;;;;;;;23.10;4.35;;;;;;;14.32;66.83;101510.53;4944778;28;20023;-77
2022/05/08 05:33:38;;;;;;;20.08;4.45;;;;;;;14.34;67.04;101508.59;4944527;28;20019;-77
2022/05/08 05:36:03;;;;;;;27.60;5.35;;;;;;;14.39;66.68;101505.53;4946097;29;20445;-77
2022/05/08 05:38:29;;;;;;;13.02;4.13;;;;;;;14.53;66.48;101503.38;4943414;29;20031;-77
2022/05/08 05:40:54;;;;;;;15.57;4.07;;;;;;;14.60;66.18;101501.88;4944806;29;20441;-77
2022/05/08 05:43:20;;;;;;;23.52;4.78;;;;;;;14.58;65.93;101501.16;4948352;29;20405;-77
2022/05/08 05:45:45;;;;;;;18.88;3.70;;;;;;;14.64;65.92;101510.59;4961510;28;20032;-78
2022/05/08 05:48:10;;;;;;;18.98;4.72;;;;;;;14.69;65.65;101503.81;4947757;29;20415;-78
2022/05/08 05:50:36;;;;;;;24.38;4.88;;;;;;;14.77;65.27;101510.44;4947812;29;20066;-77
2022/05/08 05:53:02;;;;;;;13.95;4.40;;;;;;;14.73;64.96;101507.13;4949578;28;20413;-78
2022/05/08 05:55:28;;;;;;;23.65;4.47;;;;;;;14.74;65.30;101511.53;4973192;29;20024;-76
2022/05/08 05:57:53;;;;;;;14.52;4.28;;;;;;;14.64;65.08;101514.19;4947841;29;20047;-76
2022/05/08 06:00:20;;;;;;;18.92;4.43;;;;;;;14.65;65.60;101513.16;4948204;29;20042;-78
2022/05/08 06:02:47;;;;;;;17.27;3.97;;;;;;;14.78;65.13;101517.53;4950090;28;20114;-77
2022/05/08 06:05:14;;;;;;;12.80;2.95;;;;;;;14.85;64.10;101516.91;4946655;29;20031;-77
2022/05/08 06:07:41;;;;;;;13.93;3.90;;;;;;;14.85;63.46;101514.19;4948592;29;20031;-76
2022/05/08 06:10:08;;;;;;;16.70;4.28;;;;;;;14.62;63.48;101512.56;4947104;28;20401;-77
2022/05/08 06:12:34;;;;;;;15.20;4.57;;;;;;;14.39;64.44;101505.53;4950269;28;20030;-77
2022/05/08 06:15:00;;;;;;;27.85;5.13;;;;;;;14.53;64.54;101516.03;4947895;29;20027;-77
2022/05/08 06:17:26;;;;;;;17.80;4.65;;;;;;;14.56;64.30;101507.66;4946244;29;20143;-77
2022/05/08 06:19:51;;;;;;;20.90;4.10;;;;;;;14.46;64.71;101507.56;4949070;29;20031;-78
2022/05/08 06:22:17;;;;;;;15.25;5.20;;;;;;;14.49;64.97;101506.47;4947519;29;20015;-78
2022/05/08 06:24:43;;;;;;;13.80;3.35;;;;;;;14.59;64.20;101512.81;4947964;28;20027;-78
2022/05/08 06:27:08;;;;;;;15.13;5.68;;;;;;;14.68;63.98;101507.50;4938527;28;20023;-78
2022/05/08 06:29:34;;;;;;;16.85;3.47;;;;;;;14.76;63.81;101506.84;4938692;29;20028;-79
2022/05/08 06:32:00;;;;;;;38.53;5.95;;;;;;;14.76;62.97;101498.72;4938903;29;20024;-81
2022/05/08 06:34:26;;;;;;;21.13;3.65;;;;;;;14.74;63.03;101508.81;4938497;29;20036;-81
2022/05/08 06:36:52;;;;;;;18.23;3.40;;;;;;;14.74;63.54;101516.94;4938877;29;20513;-85
2022/05/08 06:39:18;;;;;;;14.55;3.97;;;;;;;14.73;63.80;101517.94;4938667;29;20027;-85
2022/05/08 06:41:44;;;;;;;21.38;4.38;;;;;;;14.79;63.96;101509.31;4941708;29;20032;-85
2022/05/08 06:44:09;;;;;;;15.32;3.47;;;;;;;14.77;63.83;101510.44;4939358;29;20055;-86
2022/05/08 06:46:36;;;;;;;10.55;3.92;;;;;;;14.69;64.22;101514.63;4939552;29;20355;-87
2022/05/08 06:49:06;;;;;;;17.50;4.55;;;;;;;14.79;64.76;101520.13;4938744;29;20489;-85
2022/05/08 06:51:33;;;;;;;12.07;3.72;;;;;;;14.83;64.24;101527.00;4938841;29;20578;-85
2022/05/08 06:53:59;;;;;;;21.15;4.35;;;;;;;14.84;63.96;101517.88;4950916;29;20383;-84
2022/05/08 06:56:26;;;;;;;20.17;5.20;;;;;;;14.79;63.66;101520.13;4947589;28;20051;-84
2022/05/08 07:01:43;;;;;;;21.20;4.18;;;;;;;14.91;63.10;101519.09;4946702;29;20094;-82
2022/05/08 07:04:10;;;;;;;14.30;4.68;;;;;;;15.02;63.23;101520.88;4937186;29;20027;-81
2022/05/08 07:06:37;;;;;;;18.27;4.25;;;;;;;15.21;63.06;101516.44;4937669;29;20512;-82
2022/05/08 07:09:03;;;;;;;13.13;3.17;;;;;;;15.14;63.00;101525.22;4952601;29;20062;-86
2022/05/08 07:11:30;;;;;;;23.17;3.85;;;;;;;15.00;62.33;101518.31;4955550;28;20051;-82
2022/05/08 07:13:56;;;;;;;17.05;3.80;;;;;;;14.95;62.53;101525.94;4955420;29;20019;-83
2022/05/08 07:16:22;;;;;;;55.78;25.23;;;;;;;15.18;62.50;101526.69;4958479;29;20027;-82
2022/05/08 07:18:47;;;;;;;24.15;4.90;;;;;;;15.38;61.90;101516.84;4971782;28;20039;-81
2022/05/08 07:21:12;;;;;;;13.10;4.00;;;;;;;15.33;61.09;101513.66;4950719;29;20026;-76
2022/05/08 07:23:38;;;;;;;10.48;3.65;;;;;;;15.38;60.76;101517.69;4942379;29;20385;-80
2022/05/08 07:26:05;;;;;;;13.35;4.05;;;;;;;15.43;60.80;101518.16;4958004;28;20027;-78
2022/05/08 07:28:30;;;;;;;10.05;4.00;;;;;;;15.55;60.99;101525.25;4955913;28;20035;-77
2022/05/08 07:30:56;;;;;;;14.48;4.47;;;;;;;15.66;60.48;101522.44;4949516;28;20023;-78
2022/05/08 07:33:22;;;;;;;19.63;3.78;;;;;;;15.65;60.11;101511.75;4962831;29;20051;-80
2022/05/08 07:38:32;;;;;;;17.30;3.75;;;;;;;15.64;60.94;101523.56;4946675;29;20079;-80
2022/05/08 07:40:58;;;;;;;22.23;4.55;;;;;;;15.61;60.70;101518.41;4946083;29;20028;-83
2022/05/08 07:43:25;;;;;;;17.73;4.45;;;;;;;15.84;60.37;101528.06;4950772;29;20743;-80
2022/05/08 07:45:51;;;;;;;26.17;4.72;;;;;;;15.95;60.39;101527.13;4950066;28;20028;-78
2022/05/08 07:48:17;;;;;;;18.50;4.30;;;;;;;15.96;60.05;101532.41;4944771;28;20107;-74
2022/05/08 07:50:44;;;;;;;12.75;4.38;;;;;;;15.95;58.52;101530.72;4947895;28;20366;-78
2022/05/08 07:53:10;;;;;;;24.60;7.38;;;;;;;15.85;59.27;101529.78;4945142;28;20031;-78
2022/05/08 07:55:35;;;;;;;17.25;4.70;;;;;;;15.79;59.54;101535.78;4944760;28;20050;-77
2022/05/08 07:58:01;;;;;;;16.90;4.00;;;;;;;15.66;59.51;101533.28;4946804;28;20051;-77
2022/05/08 08:00:26;;;;;;;16.40;4.32;;;;;;;15.49;60.21;101542.06;4939713;29;20036;-77
2022/05/08 08:02:52;;;;;;;6.40;3.50;;;;;;;15.56;60.36;101531.53;4947732;28;20466;-78
2022/05/08 08:05:17;;;;;;;18.65;4.18;;;;;;;15.64;60.51;101532.56;4946444;29;20038;-77
2022/05/08 08:07:43;;;;;;;20.70;4.40;;;;;;;15.58;61.16;101524.97;4943028;29;20063;-76
2022/05/08 08:10:08;;;;;;;12.55;4.22;;;;;;;15.80;61.19;101529.38;4965808;28;20066;-77
2022/05/08 08:12:34;;;;;;;16.02;3.80;;;;;;;15.87;61.12;101530.50;4940170;28;20486;-77
2022/05/08 08:15:02;;;;;;;17.70;4.32;;;;;;;15.87;60.88;101535.94;4945320;28;20417;-76
2022/05/08 08:17:28;;;;;;;8.50;3.85;;;;;;;15.97;61.08;101542.25;4945445;29;20030;-77
2022/05/08 08:19:55;;;;;;;21.85;5.15;;;;;;;15.96;60.58;101531.56;4944011;28;20403;-79
2022/05/08 08:22:21;;;;;;;9.40;4.05;;;;;;;16.04;60.63;101537.16;4945512;28;20019;-77
2022/05/08 08:24:48;;;;;;;18.65;4.95;;;;;;;16.19;60.56;101542.06;4953040;28;20115;-78
2022/05/08 08:27:14;;;;;;;12.65;3.28;;;;;;;16.24;60.58;101545.22;4935713;29;20454;-76
2022/05/08 08:29:39;;;;;;;8.23;3.50;;;;;;;16.43;60.75;101543.53;4939274;29;20044;-78
2022/05/08 08:32:05;;;;;;;12.77;3.03;;;;;;;16.50;60.02;101536.56;4945627;28;20039;-76
2022/05/08 08:34:31;;;;;;;14.52;3.65;;;;;;;16.66;59.63;101536.91;4940916;28;20031;-76
2022/05/08 08:36:57;;;;;;;12.75;3.92;;;;;;;16.70;59.24;101543.75;4936234;29;20027;-77
2022/05/08 08:39:22;;;;;;;12.77;3.97;;;;;;;16.48;58.85;101533.97;4935866;29;20040;-76
2022/05/08 08:41:59;;;;;;;13.70;3.58;;;;;;;16.58;59.36;101534.88;4935739;29;20031;-76
2022/05/08 08:50:02;;;;;;;12.00;4.00;;;;;;;16.28;59.36;101538.50;4936364;29;20122;-76
2022/05/08 08:52:27;;;;;;;12.70;4.22;;;;;;;16.44;60.27;101545.25;4939240;29;20028;-76
2022/05/08 08:54:54;;;;;;;13.13;3.40;;;;;;;16.32;58.75;101534.53;4935714;29;20087;-77
2022/05/08 08:57:20;;;;;;;10.20;3.78;;;;;;;16.18;59.39;101534.91;4935668;29;20134;-76
2022/05/08 08:59:45;;;;;;;15.77;3.58;;;;;;;15.90;60.26;101546.50;4935615;29;20470;-77
2022/05/08 09:02:18;;;;;;;17.17;4.20;;;;;;;15.94;60.36;101547.97;4937045;29;20110;-77
2022/05/08 09:04:49;;;;;;;10.25;3.28;;;;;;;16.10;61.22;101545.59;4935255;29;20435;-77
2022/05/08 09:07:33;;;;;;;17.20;5.28;;;;;;;15.99;60.94;101540.25;4937164;29;20111;-80
2022/05/08 09:10:12;;;;;;;13.60;3.97;;;;;;;15.83;61.58;101550.78;4946536;28;20044;-80
2022/05/08 09:12:39;;;;;;;21.58;4.40;;;;;;;15.96;61.38;101550.56;4947324;29;20463;-80
2022/05/08 09:15:22;;;;;;;19.70;3.95;;;;;;;15.94;61.35;101539.81;4934315;29;20454;-80
2022/05/08 09:17:48;;;;;;;;;;;;;;;16.03;61.30;101547.16;4936912;29;20127;-80
2022/05/08 09:20:33;;;;;;;25.20;4.53;;;;;;;15.97;61.57;101547.69;4936563;29;19911;-82
2022/05/08 09:23:01;;;;;;;21.73;3.88;;;;;;;16.00;60.66;101546.56;4941893;29;20380;-81
2022/05/08 09:25:53;;;;;;;18.75;4.47;;;;;;;16.18;61.01;101550.31;4936583;29;20031;-82
2022/05/08 09:28:28;;;;;;;18.98;4.72;;;;;;;16.11;61.08;101547.34;4935235;29;20032;-85
2022/05/08 09:31:05;;;;;;;11.25;3.95;;;;;;;16.29;60.41;101553.81;4936490;29;20039;-81
2022/05/08 09:33:36;;;;;;;10.80;4.07;;;;;;;16.31;60.67;101540.94;4936240;29;20079;-79
2022/05/08 09:36:17;;;;;;;25.40;4.10;;;;;;;16.48;60.55;101536.69;4936851;29;20090;-81
2022/05/08 09:38:56;;;;;;;20.48;3.33;;;;;;;16.64;59.95;101536.16;4949026;29;20112;-83
2022/05/08 09:41:23;;;;;;;18.23;4.10;;;;;;;16.51;60.13;101541.81;4954546;28;20034;-81
2022/05/08 09:43:51;;;;;;;18.58;4.35;;;;;;;16.43;58.91;101538.97;4956154;28;20039;-84
2022/05/08 09:46:17;;;;;;;21.92;4.15;;;;;;;16.45;58.45;101536.13;4969537;28;20035;-79
2022/05/08 09:48:43;;;;;;;14.85;4.03;;;;;;;16.51;59.48;101535.56;4954659;28;20107;-78
2022/05/08 09:51:11;;;;;;;19.30;4.00;;;;;;;16.59;59.39;101533.03;4954545;28;20054;-83
2022/05/08 09:53:38;;;;;;;29.80;4.82;;;;;;;16.77;59.53;101526.75;4954461;28;20066;-77
2022/05/08 09:56:06;;;;;;;12.15;3.97;;;;;;;16.73;59.05;101541.59;4953980;28;20031;-75
2022/05/08 09:58:32;;;;;;;11.55;3.92;;;;;;;16.79;59.15;101537.44;4953842;28;20067;-77
2022/05/08 10:00:58;;;;;;;21.30;4.88;;;;;;;16.78;58.68;101527.59;4956121;28;20035;-83
2022/05/08 10:03:26;;;;;;;17.42;3.70;;;;;;;16.70;58.15;101535.59;4956240;28;20521;-85
2022/05/08 10:05:52;;;;;;;13.88;3.97;;;;;;;16.68;59.81;101537.59;4954606;29;20050;-81
2022/05/08 10:08:28;;;;;;;15.70;4.15;;;;;;;16.87;59.12;101515.88;4955019;28;20405;-83
2022/05/08 10:13:54;;;;;;;12.70;3.40;;;;;;;17.02;58.82;101519.88;4954802;29;20046;-85
2022/05/08 10:17:01;;;;;;;11.23;3.42;;;;;;;17.02;57.72;101529.88;4954637;28;20023;-80
2022/05/08 10:19:26;;;;;;;19.40;3.30;;;;;;;17.15;57.73;101519.56;4936689;29;20055;-84
2022/05/08 10:22:02;;;;;;;10.68;3.35;;;;;;;17.19;58.08;101516.41;4936478;29;20027;-82
2022/05/08 10:24:38;;;;;;;8.27;3.42;;;;;;;16.97;58.40;101505.84;4935837;29;20181;-82
2022/05/08 10:27:22;;;;;;;13.32;3.63;;;;;;;17.03;58.57;101521.56;4934885;29;20027;-83
2022/05/08 10:29:54;;;;;;;23.02;3.30;;;;;;;17.04;59.49;101526.00;4940765;29;20026;-87
2022/05/08 10:32:28;;;;;;;28.63;4.03;;;;;;;17.01;60.01;101526.28;4937656;29;20487;-81
2022/05/08 10:35:14;;;;;;;10.77;3.88;;;;;;;17.00;59.40;101516.41;4939073;29;20023;-82
2022/05/08 10:37:41;;;;;;;13.32;4.40;;;;;;;17.06;58.73;101515.88;4938819;29;20106;-81
2022/05/08 10:40:21;;;;;;;22.13;4.07;;;;;;;17.24;58.23;101515.97;4938881;29;20019;-80
2022/05/08 10:43:18;;;;;;;13.68;3.55;;;;;;;17.07;59.30;101512.13;4940659;29;20478;-87
2022/05/08 10:45:44;;;;;;;8.38;2.92;;;;;;;17.21;58.87;101511.69;4959673;29;20236;-82
2022/05/08 10:48:16;;;;;;;12.00;3.63;;;;;;;17.32;59.07;101510.66;4954883;29;20036;-80
2022/05/08 10:50:53;;;;;;;18.42;4.32;;;;;;;17.38;59.10;101510.94;4959596;28;20036;-78
2022/05/08 10:53:23;;;;;;;14.43;3.67;;;;;;;17.42;59.01;101517.81;4972869;29;20038;-84
2022/05/08 10:55:49;;;;;;;17.38;3.22;;;;;;;17.62;56.97;101506.88;4960165;28;20031;-84
2022/05/08 10:58:14;;;;;;;17.50;3.55;;;;;;;17.66;57.04;101502.84;4961426;28;20528;-78
2022/05/08 11:00:39;;;;;;;11.43;3.55;;;;;;;17.58;57.40;101500.03;4959249;28;20027;-79
2022/05/08 11:03:05;;;;;;;24.48;3.50;;;;;;;17.76;57.01;101495.50;4956696;28;20473;-79
2022/05/08 11:05:37;;;;;;;10.82;3.03;;;;;;;17.86;56.57;101499.03;4955983;28;20027;-79
2022/05/08 11:08:08;;;;;;;17.60;3.40;;;;;;;17.68;57.51;101487.22;4956354;28;20027;-79
2022/05/08 11:10:39;;;;;;;15.95;3.83;;;;;;;17.76;58.28;101487.34;4956355;28;20043;-80
2022/05/08 11:13:06;;;;;;;13.43;4.47;;;;;;;17.75;57.47;101489.22;4956181;28;20071;-80
2022/05/08 11:15:45;;;;;;;5.95;3.30;;;;;;;17.77;56.90;101483.59;4955116;28;20019;-79
2022/05/08 11:18:22;;;;;;;8.43;3.60;;;;;;;17.90;56.71;101478.69;4957037;28;20031;-86
2022/05/08 11:21:02;;;;;;;17.83;3.45;;;;;;;18.02;56.72;101488.34;4951901;29;20038;-81
2022/05/08 11:23:42;;;;;;;14.77;3.40;;;;;;;17.85;56.87;101481.88;4955898;29;20034;-78
2022/05/08 11:26:12;;;;;;;17.13;4.22;;;;;;;17.99;57.42;101493.25;4941908;29;20027;-78
2022/05/08 11:29:04;;;;;;;17.45;2.92;;;;;;;18.11;57.26;101495.59;4954552;29;20024;-85
2022/05/08 11:31:34;;;;;;;10.75;3.35;;;;;;;18.20;56.99;101496.53;4948553;28;20146;-83
2022/05/08 11:36:46;;;;;;;10.38;2.63;;;;;;;18.38;56.88;101476.50;4950797;29;20034;-83
2022/05/08 11:39:17;;;;;;;12.55;3.47;;;;;;;18.61;56.10;101496.03;4967012;28;20033;-82
2022/05/08 11:41:52;;;;;;;13.68;4.20;;;;;;;18.75;54.82;101480.97;4949477;28;20466;-81
2022/05/08 11:44:23;;;;;;;10.23;3.30;;;;;;;18.64;55.24;101484.81;4937323;29;20041;-83